sensor_id;sensor_type;location;lat;lon;timestamp;temperature;humidity
46816;DHT22;32787;53.316;8.670;2023-06-22T00:02:17;16.20;88.70
46816;DHT22;32787;53.316;8.670;2023-06-22T00:04:43;16.20;88.90
46816;DHT22;32787;53.316;8.670;2023-06-22T00:07:08;16.30;88.90
46816;DHT22;32787;53.316;8.670;2023-06-22T00:09:34;16.30;88.90
46816;DHT22;32787;53.316;8.670;2023-06-22T00:12:00;16.40;88.50
46816;DHT22;32787;53.316;8.670;2023-06-22T00:14:26;16.30;88.60
46816;DHT22;32787;53.316;8.670;2023-06-22T00:16:52;16.30;88.80
46816;DHT22;32787;53.316;8.670;2023-06-22T00:19:25;16.30;88.50
46816;DHT22;32787;53.316;8.670;2023-06-22T00:21:51;16.30;88.80
46816;DHT22;32787;53.316;8.670;2023-06-22T00:24:20;16.50;88.50
46816;DHT22;32787;53.316;8.670;2023-06-22T00:26:47;16.80;88.00
46816;DHT22;32787;53.316;8.670;2023-06-22T00:29:13;16.90;87.40
46816;DHT22;32787;53.316;8.670;2023-06-22T00:31:39;16.80;87.30
46816;DHT22;32787;53.316;8.670;2023-06-22T00:34:04;16.60;87.60
46816;DHT22;32787;53.316;8.670;2023-06-22T00:36:32;16.40;88.10
46816;DHT22;32787;53.316;8.670;2023-06-22T00:38:57;16.30;88.50
46816;DHT22;32787;53.316;8.670;2023-06-22T00:41:23;16.30;88.80
46816;DHT22;32787;53.316;8.670;2023-06-22T00:43:49;16.50;88.60
46816;DHT22;32787;53.316;8.670;2023-06-22T00:46:14;16.60;88.40
46816;DHT22;32787;53.316;8.670;2023-06-22T00:48:40;16.70;88.40
46816;DHT22;32787;53.316;8.670;2023-06-22T00:51:10;16.80;87.80
46816;DHT22;32787;53.316;8.670;2023-06-22T00:53:36;16.80;87.80
46816;DHT22;32787;53.316;8.670;2023-06-22T00:56:02;16.70;87.80
46816;DHT22;32787;53.316;8.670;2023-06-22T00:58:29;16.50;88.20
46816;DHT22;32787;53.316;8.670;2023-06-22T01:00:55;16.50;88.60
46816;DHT22;32787;53.316;8.670;2023-06-22T01:03:21;16.60;88.30
46816;DHT22;32787;53.316;8.670;2023-06-22T01:05:47;16.40;88.30
46816;DHT22;32787;53.316;8.670;2023-06-22T01:08:39;16.30;88.70
46816;DHT22;32787;53.316;8.670;2023-06-22T01:11:28;16.20;88.90
46816;DHT22;32787;53.316;8.670;2023-06-22T01:16:23;16.10;89.20
46816;DHT22;32787;53.316;8.670;2023-06-22T01:18:50;16.00;89.30
46816;DHT22;32787;53.316;8.670;2023-06-22T01:21:19;16.10;89.50
46816;DHT22;32787;53.316;8.670;2023-06-22T01:28:57;16.00;89.60
46816;DHT22;32787;53.316;8.670;2023-06-22T01:31:26;16.00;89.70
46816;DHT22;32787;53.316;8.670;2023-06-22T01:33:58;15.90;89.90
46816;DHT22;32787;53.316;8.670;2023-06-22T01:36:25;15.90;89.90
46816;DHT22;32787;53.316;8.670;2023-06-22T01:38:52;15.80;90.00
46816;DHT22;32787;53.316;8.670;2023-06-22T01:41:20;16.10;89.90
46816;DHT22;32787;53.316;8.670;2023-06-22T01:43:47;16.20;89.50
46816;DHT22;32787;53.316;8.670;2023-06-22T01:46:13;16.20;89.30
46816;DHT22;32787;53.316;8.670;2023-06-22T01:48:40;16.30;89.20
46816;DHT22;32787;53.316;8.670;2023-06-22T01:51:06;16.20;89.10
46816;DHT22;32787;53.316;8.670;2023-06-22T01:53:31;16.10;89.20
46816;DHT22;32787;53.316;8.670;2023-06-22T01:55:57;16.10;89.40
46816;DHT22;32787;53.316;8.670;2023-06-22T01:58:27;16.10;89.50
46816;DHT22;32787;53.316;8.670;2023-06-22T02:01:00;16.00;89.40
46816;DHT22;32787;53.316;8.670;2023-06-22T02:03:55;15.90;89.60
46816;DHT22;32787;53.316;8.670;2023-06-22T02:06:29;15.80;89.80
46816;DHT22;32787;53.316;8.670;2023-06-22T02:09:02;15.90;89.70
46816;DHT22;32787;53.316;8.670;2023-06-22T02:11:31;15.80;89.70
46816;DHT22;32787;53.316;8.670;2023-06-22T02:13:58;15.80;89.70
46816;DHT22;32787;53.316;8.670;2023-06-22T02:16:25;15.70;89.80
46816;DHT22;32787;53.316;8.670;2023-06-22T02:18:55;15.60;89.80
46816;DHT22;32787;53.316;8.670;2023-06-22T02:21:28;15.50;90.10
46816;DHT22;32787;53.316;8.670;2023-06-22T02:23:54;15.60;90.00
46816;DHT22;32787;53.316;8.670;2023-06-22T02:26:19;15.50;90.10
46816;DHT22;32787;53.316;8.670;2023-06-22T02:28:45;15.40;90.20
46816;DHT22;32787;53.316;8.670;2023-06-22T02:31:11;15.40;90.30
46816;DHT22;32787;53.316;8.670;2023-06-22T02:33:37;15.40;90.40
46816;DHT22;32787;53.316;8.670;2023-06-22T02:36:03;15.30;90.10
46816;DHT22;32787;53.316;8.670;2023-06-22T02:38:31;15.30;90.20
46816;DHT22;32787;53.316;8.670;2023-06-22T02:41:02;15.10;90.30
46816;DHT22;32787;53.316;8.670;2023-06-22T02:43:28;15.20;90.50
46816;DHT22;32787;53.316;8.670;2023-06-22T02:45:53;15.20;90.40
46816;DHT22;32787;53.316;8.670;2023-06-22T02:48:19;15.20;90.30
46816;DHT22;32787;53.316;8.670;2023-06-22T02:50:45;15.00;90.40
46816;DHT22;32787;53.316;8.670;2023-06-22T02:53:10;15.10;90.50
46816;DHT22;32787;53.316;8.670;2023-06-22T02:55:36;15.10;90.60
46816;DHT22;32787;53.316;8.670;2023-06-22T02:58:02;15.10;90.60
46816;DHT22;32787;53.316;8.670;2023-06-22T03:00:30;15.10;90.60
46816;DHT22;32787;53.316;8.670;2023-06-22T03:02:57;15.00;90.50
46816;DHT22;32787;53.316;8.670;2023-06-22T03:05:23;15.00;90.50
46816;DHT22;32787;53.316;8.670;2023-06-22T03:07:49;15.00;90.50
46816;DHT22;32787;53.316;8.670;2023-06-22T03:10:15;14.90;90.50
46816;DHT22;32787;53.316;8.670;2023-06-22T03:12:42;15.00;90.60
46816;DHT22;32787;53.316;8.670;2023-06-22T03:15:10;15.00;90.50
46816;DHT22;32787;53.316;8.670;2023-06-22T03:17:37;15.00;90.50
46816;DHT22;32787;53.316;8.670;2023-06-22T03:20:04;15.00;90.60
46816;DHT22;32787;53.316;8.670;2023-06-22T03:22:40;15.20;90.20
46816;DHT22;32787;53.316;8.670;2023-06-22T03:25:07;15.10;90.10
46816;DHT22;32787;53.316;8.670;2023-06-22T03:27:39;15.10;90.10
46816;DHT22;32787;53.316;8.670;2023-06-22T03:30:06;15.00;90.30
46816;DHT22;32787;53.316;8.670;2023-06-22T03:32:32;14.90;90.40
46816;DHT22;32787;53.316;8.670;2023-06-22T03:34:58;15.00;90.50
46816;DHT22;32787;53.316;8.670;2023-06-22T03:37:27;15.00;90.60
46816;DHT22;32787;53.316;8.670;2023-06-22T03:39:53;15.20;90.60
46816;DHT22;32787;53.316;8.670;2023-06-22T03:42:19;15.30;90.30
46816;DHT22;32787;53.316;8.670;2023-06-22T03:44:45;15.20;90.30
46816;DHT22;32787;53.316;8.670;2023-06-22T03:47:10;15.30;90.20
46816;DHT22;32787;53.316;8.670;2023-06-22T03:49:36;15.30;90.20
46816;DHT22;32787;53.316;8.670;2023-06-22T03:52:03;15.20;90.20
46816;DHT22;32787;53.316;8.670;2023-06-22T03:54:29;15.20;90.30
46816;DHT22;32787;53.316;8.670;2023-06-22T03:56:57;15.20;90.50
46816;DHT22;32787;53.316;8.670;2023-06-22T03:59:23;15.20;90.50
46816;DHT22;32787;53.316;8.670;2023-06-22T04:01:48;15.30;90.50
46816;DHT22;32787;53.316;8.670;2023-06-22T04:04:14;15.30;90.40
46816;DHT22;32787;53.316;8.670;2023-06-22T04:06:40;15.40;90.40
46816;DHT22;32787;53.316;8.670;2023-06-22T04:09:06;15.50;90.40
46816;DHT22;32787;53.316;8.670;2023-06-22T04:11:32;15.50;90.20
46816;DHT22;32787;53.316;8.670;2023-06-22T04:13:58;15.50;90.20
46816;DHT22;32787;53.316;8.670;2023-06-22T04:16:23;15.60;90.20
46816;DHT22;32787;53.316;8.670;2023-06-22T04:18:49;15.60;90.20
46816;DHT22;32787;53.316;8.670;2023-06-22T04:21:14;15.70;90.20
46816;DHT22;32787;53.316;8.670;2023-06-22T04:23:40;15.70;90.20
46816;DHT22;32787;53.316;8.670;2023-06-22T04:26:06;15.80;90.30
46816;DHT22;32787;53.316;8.670;2023-06-22T04:28:31;15.80;90.20
46816;DHT22;32787;53.316;8.670;2023-06-22T04:31:01;15.80;90.30
46816;DHT22;32787;53.316;8.670;2023-06-22T04:33:28;15.80;90.30
46816;DHT22;32787;53.316;8.670;2023-06-22T04:35:54;15.90;90.10
46816;DHT22;32787;53.316;8.670;2023-06-22T04:38:22;15.90;90.20
46816;DHT22;32787;53.316;8.670;2023-06-22T04:40:49;16.00;90.30
46816;DHT22;32787;53.316;8.670;2023-06-22T04:43:15;16.10;90.30
46816;DHT22;32787;53.316;8.670;2023-06-22T04:45:40;16.20;90.20
46816;DHT22;32787;53.316;8.670;2023-06-22T04:48:06;16.30;90.00
46816;DHT22;32787;53.316;8.670;2023-06-22T04:50:34;16.30;90.00
46816;DHT22;32787;53.316;8.670;2023-06-22T04:52:59;16.30;90.00
46816;DHT22;32787;53.316;8.670;2023-06-22T04:55:25;16.40;90.10
46816;DHT22;32787;53.316;8.670;2023-06-22T04:57:51;16.50;90.20
46816;DHT22;32787;53.316;8.670;2023-06-22T05:00:20;16.50;90.10
46816;DHT22;32787;53.316;8.670;2023-06-22T05:02:48;16.60;90.20
46816;DHT22;32787;53.316;8.670;2023-06-22T05:05:14;16.70;90.10
46816;DHT22;32787;53.316;8.670;2023-06-22T05:07:44;16.80;90.10
46816;DHT22;32787;53.316;8.670;2023-06-22T05:10:10;16.80;90.10
46816;DHT22;32787;53.316;8.670;2023-06-22T05:12:38;16.80;90.00
46816;DHT22;32787;53.316;8.670;2023-06-22T05:15:05;16.80;90.10
46816;DHT22;32787;53.316;8.670;2023-06-22T05:17:31;16.90;90.10
46816;DHT22;32787;53.316;8.670;2023-06-22T05:19:56;17.10;90.00
46816;DHT22;32787;53.316;8.670;2023-06-22T05:22:22;17.10;89.70
46816;DHT22;32787;53.316;8.670;2023-06-22T05:24:47;17.30;89.60
46816;DHT22;32787;53.316;8.670;2023-06-22T05:27:14;17.30;89.50
46816;DHT22;32787;53.316;8.670;2023-06-22T05:29:40;17.20;89.20
46816;DHT22;32787;53.316;8.670;2023-06-22T05:32:06;17.20;89.20
46816;DHT22;32787;53.316;8.670;2023-06-22T05:34:32;17.20;89.00
46816;DHT22;32787;53.316;8.670;2023-06-22T05:36:58;17.20;88.90
46816;DHT22;32787;53.316;8.670;2023-06-22T05:39:26;17.20;88.90
46816;DHT22;32787;53.316;8.670;2023-06-22T05:41:52;17.30;88.90
46816;DHT22;32787;53.316;8.670;2023-06-22T05:44:18;17.20;88.80
46816;DHT22;32787;53.316;8.670;2023-06-22T05:46:45;17.20;88.80
46816;DHT22;32787;53.316;8.670;2023-06-22T05:49:12;17.30;88.90
46816;DHT22;32787;53.316;8.670;2023-06-22T05:51:38;17.30;88.80
46816;DHT22;32787;53.316;8.670;2023-06-22T05:54:04;17.40;88.60
46816;DHT22;32787;53.316;8.670;2023-06-22T05:56:30;17.30;88.60
46816;DHT22;32787;53.316;8.670;2023-06-22T05:58:55;17.40;88.70
46816;DHT22;32787;53.316;8.670;2023-06-22T06:01:21;17.40;88.20
46816;DHT22;32787;53.316;8.670;2023-06-22T06:03:46;17.50;88.40
46816;DHT22;32787;53.316;8.670;2023-06-22T06:06:12;17.50;88.30
46816;DHT22;32787;53.316;8.670;2023-06-22T06:08:39;17.60;88.30
46816;DHT22;32787;53.316;8.670;2023-06-22T06:11:04;17.80;88.20
46816;DHT22;32787;53.316;8.670;2023-06-22T06:13:30;17.90;87.30
46816;DHT22;32787;53.316;8.670;2023-06-22T06:15:56;18.10;87.00
46816;DHT22;32787;53.316;8.670;2023-06-22T06:18:22;18.30;86.60
46816;DHT22;32787;53.316;8.670;2023-06-22T06:20:48;18.40;85.90
46816;DHT22;32787;53.316;8.670;2023-06-22T06:23:14;18.30;85.70
46816;DHT22;32787;53.316;8.670;2023-06-22T06:25:40;18.50;85.50
46816;DHT22;32787;53.316;8.670;2023-06-22T06:28:06;18.50;85.80
46816;DHT22;32787;53.316;8.670;2023-06-22T06:30:31;18.70;84.80
46816;DHT22;32787;53.316;8.670;2023-06-22T06:32:57;18.70;83.60
46816;DHT22;32787;53.316;8.670;2023-06-22T06:35:23;18.80;84.00
46816;DHT22;32787;53.316;8.670;2023-06-22T06:37:50;19.00;83.20
46816;DHT22;32787;53.316;8.670;2023-06-22T06:40:17;19.00;82.90
46816;DHT22;32787;53.316;8.670;2023-06-22T06:42:45;19.00;82.60
46816;DHT22;32787;53.316;8.670;2023-06-22T06:45:19;19.00;83.50
46816;DHT22;32787;53.316;8.670;2023-06-22T06:47:46;19.40;82.00
46816;DHT22;32787;53.316;8.670;2023-06-22T06:50:12;19.60;81.30
46816;DHT22;32787;53.316;8.670;2023-06-22T06:52:38;19.50;80.70
46816;DHT22;32787;53.316;8.670;2023-06-22T06:55:04;19.70;80.10
46816;DHT22;32787;53.316;8.670;2023-06-22T06:57:31;19.70;79.80
46816;DHT22;32787;53.316;8.670;2023-06-22T06:59:57;19.70;80.20
46816;DHT22;32787;53.316;8.670;2023-06-22T07:02:24;19.70;79.70
46816;DHT22;32787;53.316;8.670;2023-06-22T07:04:49;19.70;79.40
46816;DHT22;32787;53.316;8.670;2023-06-22T07:07:15;19.80;79.20
46816;DHT22;32787;53.316;8.670;2023-06-22T07:09:41;19.90;79.50
46816;DHT22;32787;53.316;8.670;2023-06-22T07:12:07;20.30;77.80
46816;DHT22;32787;53.316;8.670;2023-06-22T07:14:32;20.10;77.00
46816;DHT22;32787;53.316;8.670;2023-06-22T07:16:58;20.10;77.30
46816;DHT22;32787;53.316;8.670;2023-06-22T07:19:25;20.20;78.10
46816;DHT22;32787;53.316;8.670;2023-06-22T07:21:51;20.50;77.20
46816;DHT22;32787;53.316;8.670;2023-06-22T07:24:17;20.60;76.10
46816;DHT22;32787;53.316;8.670;2023-06-22T07:26:43;20.70;75.30
46816;DHT22;32787;53.316;8.670;2023-06-22T07:29:11;20.60;76.20
46816;DHT22;32787;53.316;8.670;2023-06-22T07:31:37;20.70;75.10
46816;DHT22;32787;53.316;8.670;2023-06-22T07:34:03;20.70;75.40
46816;DHT22;32787;53.316;8.670;2023-06-22T07:36:29;20.80;75.70
46816;DHT22;32787;53.316;8.670;2023-06-22T07:38:55;20.90;75.60
46816;DHT22;32787;53.316;8.670;2023-06-22T07:41:21;20.90;74.70
46816;DHT22;32787;53.316;8.670;2023-06-22T07:43:47;21.30;73.80
46816;DHT22;32787;53.316;8.670;2023-06-22T07:46:12;21.20;74.00
46816;DHT22;32787;53.316;8.670;2023-06-22T07:48:38;21.30;73.30
46816;DHT22;32787;53.316;8.670;2023-06-22T07:51:04;21.30;72.40
46816;DHT22;32787;53.316;8.670;2023-06-22T07:53:31;21.20;75.30
46816;DHT22;32787;53.316;8.670;2023-06-22T07:55:57;21.40;73.20
46816;DHT22;32787;53.316;8.670;2023-06-22T07:58:22;21.30;74.10
46816;DHT22;32787;53.316;8.670;2023-06-22T08:00:48;21.30;74.30
46816;DHT22;32787;53.316;8.670;2023-06-22T08:03:15;21.30;74.00
46816;DHT22;32787;53.316;8.670;2023-06-22T08:05:41;21.30;74.00
46816;DHT22;32787;53.316;8.670;2023-06-22T08:08:06;21.30;73.90
46816;DHT22;32787;53.316;8.670;2023-06-22T08:10:32;21.30;73.40
46816;DHT22;32787;53.316;8.670;2023-06-22T08:12:58;21.30;73.30
46816;DHT22;32787;53.316;8.670;2023-06-22T08:15:25;21.30;74.60
46816;DHT22;32787;53.316;8.670;2023-06-22T08:17:51;21.40;72.70
46816;DHT22;32787;53.316;8.670;2023-06-22T08:20:18;21.40;73.40
46816;DHT22;32787;53.316;8.670;2023-06-22T08:22:43;21.70;73.10
46816;DHT22;32787;53.316;8.670;2023-06-22T08:25:10;21.80;71.60
46816;DHT22;32787;53.316;8.670;2023-06-22T08:27:36;21.80;70.80
46816;DHT22;32787;53.316;8.670;2023-06-22T08:30:02;21.80;70.70
46816;DHT22;32787;53.316;8.670;2023-06-22T08:32:28;21.90;70.30
46816;DHT22;32787;53.316;8.670;2023-06-22T08:34:55;22.00;71.80
46816;DHT22;32787;53.316;8.670;2023-06-22T08:37:21;22.20;72.30
46816;DHT22;32787;53.316;8.670;2023-06-22T08:39:49;22.60;71.10
46816;DHT22;32787;53.316;8.670;2023-06-22T08:42:15;22.80;69.80
46816;DHT22;32787;53.316;8.670;2023-06-22T08:44:41;22.40;69.30
46816;DHT22;32787;53.316;8.670;2023-06-22T08:47:06;22.30;70.00
46816;DHT22;32787;53.316;8.670;2023-06-22T08:49:32;22.50;71.00
46816;DHT22;32787;53.316;8.670;2023-06-22T08:51:57;22.50;70.50
46816;DHT22;32787;53.316;8.670;2023-06-22T08:54:23;22.80;68.20
46816;DHT22;32787;53.316;8.670;2023-06-22T08:56:49;22.70;70.50
46816;DHT22;32787;53.316;8.670;2023-06-22T08:59:14;22.60;69.90
46816;DHT22;32787;53.316;8.670;2023-06-22T09:01:40;22.90;68.60
46816;DHT22;32787;53.316;8.670;2023-06-22T09:04:06;23.10;66.80
46816;DHT22;32787;53.316;8.670;2023-06-22T09:06:34;23.00;68.20
46816;DHT22;32787;53.316;8.670;2023-06-22T09:09:00;23.20;67.40
46816;DHT22;32787;53.316;8.670;2023-06-22T09:11:26;23.20;67.20
46816;DHT22;32787;53.316;8.670;2023-06-22T09:13:51;23.00;68.50
46816;DHT22;32787;53.316;8.670;2023-06-22T09:16:19;23.10;68.20
46816;DHT22;32787;53.316;8.670;2023-06-22T09:18:48;22.90;67.40
46816;DHT22;32787;53.316;8.670;2023-06-22T09:21:13;23.00;68.00
46816;DHT22;32787;53.316;8.670;2023-06-22T09:23:39;23.30;66.70
46816;DHT22;32787;53.316;8.670;2023-06-22T09:26:05;23.70;64.30
46816;DHT22;32787;53.316;8.670;2023-06-22T09:28:31;23.80;63.80
46816;DHT22;32787;53.316;8.670;2023-06-22T09:30:56;23.50;64.60
46816;DHT22;32787;53.316;8.670;2023-06-22T09:33:25;23.40;64.80
46816;DHT22;32787;53.316;8.670;2023-06-22T09:35:51;23.40;65.40
46816;DHT22;32787;53.316;8.670;2023-06-22T09:38:17;23.70;62.40
46816;DHT22;32787;53.316;8.670;2023-06-22T09:40:43;23.60;64.30
46816;DHT22;32787;53.316;8.670;2023-06-22T09:43:08;23.70;63.70
46816;DHT22;32787;53.316;8.670;2023-06-22T09:45:34;23.90;61.30
46816;DHT22;32787;53.316;8.670;2023-06-22T09:48:00;23.80;60.60
46816;DHT22;32787;53.316;8.670;2023-06-22T09:50:26;23.80;60.50
46816;DHT22;32787;53.316;8.670;2023-06-22T09:52:51;23.70;62.40
46816;DHT22;32787;53.316;8.670;2023-06-22T09:55:21;23.80;63.40
46816;DHT22;32787;53.316;8.670;2023-06-22T09:57:46;23.70;61.60
46816;DHT22;32787;53.316;8.670;2023-06-22T10:00:13;23.80;60.30
46816;DHT22;32787;53.316;8.670;2023-06-22T10:02:41;23.80;60.20
46816;DHT22;32787;53.316;8.670;2023-06-22T10:05:07;23.80;59.70
46816;DHT22;32787;53.316;8.670;2023-06-22T10:07:33;23.90;61.20
46816;DHT22;32787;53.316;8.670;2023-06-22T10:09:59;23.90;62.90
46816;DHT22;32787;53.316;8.670;2023-06-22T10:12:27;24.20;60.20
46816;DHT22;32787;53.316;8.670;2023-06-22T10:14:52;24.20;60.20
46816;DHT22;32787;53.316;8.670;2023-06-22T10:17:18;24.50;60.00
46816;DHT22;32787;53.316;8.670;2023-06-22T10:19:44;24.50;58.60
46816;DHT22;32787;53.316;8.670;2023-06-22T10:22:09;24.20;57.60
46816;DHT22;32787;53.316;8.670;2023-06-22T10:24:35;24.20;59.70
46816;DHT22;32787;53.316;8.670;2023-06-22T10:27:01;24.20;59.90
46816;DHT22;32787;53.316;8.670;2023-06-22T10:29:26;24.20;59.80
46816;DHT22;32787;53.316;8.670;2023-06-22T10:31:52;24.30;59.40
46816;DHT22;32787;53.316;8.670;2023-06-22T10:34:18;24.40;59.80
46816;DHT22;32787;53.316;8.670;2023-06-22T10:36:43;24.40;59.00
46816;DHT22;32787;53.316;8.670;2023-06-22T10:39:11;24.60;60.00
46816;DHT22;32787;53.316;8.670;2023-06-22T10:41:37;24.50;57.80
46816;DHT22;32787;53.316;8.670;2023-06-22T10:44:03;24.70;60.10
46816;DHT22;32787;53.316;8.670;2023-06-22T10:46:28;24.90;57.30
46816;DHT22;32787;53.316;8.670;2023-06-22T10:48:54;24.70;58.60
46816;DHT22;32787;53.316;8.670;2023-06-22T10:51:22;24.70;58.90
46816;DHT22;32787;53.316;8.670;2023-06-22T10:53:48;25.10;59.00
46816;DHT22;32787;53.316;8.670;2023-06-22T10:56:13;25.20;60.70
46816;DHT22;32787;53.316;8.670;2023-06-22T10:58:39;25.50;58.60
46816;DHT22;32787;53.316;8.670;2023-06-22T11:01:05;25.50;57.60
46816;DHT22;32787;53.316;8.670;2023-06-22T11:03:30;25.50;57.20
46816;DHT22;32787;53.316;8.670;2023-06-22T11:05:56;25.60;57.90
46816;DHT22;32787;53.316;8.670;2023-06-22T11:08:21;25.50;58.70
46816;DHT22;32787;53.316;8.670;2023-06-22T11:10:47;25.50;59.20
46816;DHT22;32787;53.316;8.670;2023-06-22T11:13:13;25.60;58.10
46816;DHT22;32787;53.316;8.670;2023-06-22T11:15:39;26.00;57.30
46816;DHT22;32787;53.316;8.670;2023-06-22T11:18:05;26.30;55.90
46816;DHT22;32787;53.316;8.670;2023-06-22T11:20:33;26.50;55.00
46816;DHT22;32787;53.316;8.670;2023-06-22T11:23:04;27.00;53.50
46816;DHT22;32787;53.316;8.670;2023-06-22T11:25:30;27.40;52.70
46816;DHT22;32787;53.316;8.670;2023-06-22T11:27:56;28.30;49.90
46816;DHT22;32787;53.316;8.670;2023-06-22T11:30:22;28.40;50.60
46816;DHT22;32787;53.316;8.670;2023-06-22T11:32:48;29.00;49.40
46816;DHT22;32787;53.316;8.670;2023-06-22T11:35:14;29.10;47.70
46816;DHT22;32787;53.316;8.670;2023-06-22T11:37:40;29.00;48.80
46816;DHT22;32787;53.316;8.670;2023-06-22T11:40:06;28.40;49.60
46816;DHT22;32787;53.316;8.670;2023-06-22T11:42:34;28.20;50.80
46816;DHT22;32787;53.316;8.670;2023-06-22T11:45:00;27.50;52.50
46816;DHT22;32787;53.316;8.670;2023-06-22T11:47:27;26.90;54.10
46816;DHT22;32787;53.316;8.670;2023-06-22T11:49:52;26.70;54.10
46816;DHT22;32787;53.316;8.670;2023-06-22T11:52:18;26.70;55.10
46816;DHT22;32787;53.316;8.670;2023-06-22T11:54:44;27.10;55.10
46816;DHT22;32787;53.316;8.670;2023-06-22T11:57:11;27.40;55.10
46816;DHT22;32787;53.316;8.670;2023-06-22T11:59:36;27.50;54.00
46816;DHT22;32787;53.316;8.670;2023-06-22T12:02:02;27.60;53.80
46816;DHT22;32787;53.316;8.670;2023-06-22T12:04:29;27.40;54.40
46816;DHT22;32787;53.316;8.670;2023-06-22T12:06:54;27.40;54.20
46816;DHT22;32787;53.316;8.670;2023-06-22T12:09:20;27.70;54.40
46816;DHT22;32787;53.316;8.670;2023-06-22T12:11:45;27.80;53.50
46816;DHT22;32787;53.316;8.670;2023-06-22T12:14:11;27.30;54.40
46816;DHT22;32787;53.316;8.670;2023-06-22T12:16:37;27.70;54.40
46816;DHT22;32787;53.316;8.670;2023-06-22T12:19:03;27.70;54.20
46816;DHT22;32787;53.316;8.670;2023-06-22T12:21:28;27.70;52.50
46816;DHT22;32787;53.316;8.670;2023-06-22T12:23:54;27.30;54.20
46816;DHT22;32787;53.316;8.670;2023-06-22T12:26:20;26.80;55.60
46816;DHT22;32787;53.316;8.670;2023-06-22T12:28:45;26.70;57.50
46816;DHT22;32787;53.316;8.670;2023-06-22T12:31:11;26.80;56.50
46816;DHT22;32787;53.316;8.670;2023-06-22T12:33:36;26.80;55.70
46816;DHT22;32787;53.316;8.670;2023-06-22T12:36:02;26.90;56.20
46816;DHT22;32787;53.316;8.670;2023-06-22T12:38:30;26.70;55.90
46816;DHT22;32787;53.316;8.670;2023-06-22T12:40:55;26.80;56.70
46816;DHT22;32787;53.316;8.670;2023-06-22T12:43:21;27.10;54.20
46816;DHT22;32787;53.316;8.670;2023-06-22T12:45:47;27.30;54.60
46816;DHT22;32787;53.316;8.670;2023-06-22T12:48:12;27.50;54.20
46816;DHT22;32787;53.316;8.670;2023-06-22T12:50:38;27.20;54.70
46816;DHT22;32787;53.316;8.670;2023-06-22T12:53:04;26.70;55.80
46816;DHT22;32787;53.316;8.670;2023-06-22T12:55:31;26.30;57.60
46816;DHT22;32787;53.316;8.670;2023-06-22T12:57:57;26.30;57.00
46816;DHT22;32787;53.316;8.670;2023-06-22T13:00:23;26.50;58.00
46816;DHT22;32787;53.316;8.670;2023-06-22T13:02:48;26.50;57.40
46816;DHT22;32787;53.316;8.670;2023-06-22T13:05:14;26.50;58.40
46816;DHT22;32787;53.316;8.670;2023-06-22T13:07:40;26.60;57.00
46816;DHT22;32787;53.316;8.670;2023-06-22T13:10:07;26.40;57.20
46816;DHT22;32787;53.316;8.670;2023-06-22T13:12:33;26.20;56.60
46816;DHT22;32787;53.316;8.670;2023-06-22T13:14:59;26.30;56.60
46816;DHT22;32787;53.316;8.670;2023-06-22T13:17:24;26.20;57.80
46816;DHT22;32787;53.316;8.670;2023-06-22T13:19:50;26.30;57.80
46816;DHT22;32787;53.316;8.670;2023-06-22T13:22:30;26.20;59.10
46816;DHT22;32787;53.316;8.670;2023-06-22T13:24:56;26.20;58.50
46816;DHT22;32787;53.316;8.670;2023-06-22T13:27:22;26.20;57.80
46816;DHT22;32787;53.316;8.670;2023-06-22T13:29:48;26.20;59.60
46816;DHT22;32787;53.316;8.670;2023-06-22T13:32:14;26.00;60.60
46816;DHT22;32787;53.316;8.670;2023-06-22T13:34:39;25.80;60.30
46816;DHT22;32787;53.316;8.670;2023-06-22T13:37:05;25.80;58.90
46816;DHT22;32787;53.316;8.670;2023-06-22T13:39:31;25.80;59.00
46816;DHT22;32787;53.316;8.670;2023-06-22T13:41:58;25.70;60.00
46816;DHT22;32787;53.316;8.670;2023-06-22T13:44:23;25.60;60.80
46816;DHT22;32787;53.316;8.670;2023-06-22T13:46:53;25.50;60.20
46816;DHT22;32787;53.316;8.670;2023-06-22T13:49:18;25.50;61.50
46816;DHT22;32787;53.316;8.670;2023-06-22T13:51:44;25.70;60.30
46816;DHT22;32787;53.316;8.670;2023-06-22T13:54:10;25.80;59.70
46816;DHT22;32787;53.316;8.670;2023-06-22T13:56:35;25.60;60.30
46816;DHT22;32787;53.316;8.670;2023-06-22T13:59:01;25.50;60.30
46816;DHT22;32787;53.316;8.670;2023-06-22T14:01:26;25.60;60.60
46816;DHT22;32787;53.316;8.670;2023-06-22T14:03:52;25.60;61.10
46816;DHT22;32787;53.316;8.670;2023-06-22T14:06:18;25.70;60.00
46816;DHT22;32787;53.316;8.670;2023-06-22T14:08:43;25.60;60.40
46816;DHT22;32787;53.316;8.670;2023-06-22T14:11:09;25.70;61.10
46816;DHT22;32787;53.316;8.670;2023-06-22T14:13:35;25.70;61.40
46816;DHT22;32787;53.316;8.670;2023-06-22T14:16:01;25.80;60.90
46816;DHT22;32787;53.316;8.670;2023-06-22T14:18:27;25.70;59.30
46816;DHT22;32787;53.316;8.670;2023-06-22T14:20:52;25.70;60.00
46816;DHT22;32787;53.316;8.670;2023-06-22T14:23:18;25.70;60.30
46816;DHT22;32787;53.316;8.670;2023-06-22T14:25:44;25.80;59.80
46816;DHT22;32787;53.316;8.670;2023-06-22T14:28:09;25.80;59.90
46816;DHT22;32787;53.316;8.670;2023-06-22T14:30:35;25.90;59.80
46816;DHT22;32787;53.316;8.670;2023-06-22T14:33:01;25.80;60.20
46816;DHT22;32787;53.316;8.670;2023-06-22T14:35:26;25.90;62.10
46816;DHT22;32787;53.316;8.670;2023-06-22T14:37:52;25.80;61.50
46816;DHT22;32787;53.316;8.670;2023-06-22T14:40:18;25.70;62.60
46816;DHT22;32787;53.316;8.670;2023-06-22T14:42:43;25.70;61.10
46816;DHT22;32787;53.316;8.670;2023-06-22T14:45:09;25.80;61.00
46816;DHT22;32787;53.316;8.670;2023-06-22T14:47:35;25.80;60.10
46816;DHT22;32787;53.316;8.670;2023-06-22T14:50:00;25.60;60.90
46816;DHT22;32787;53.316;8.670;2023-06-22T14:52:26;25.50;61.80
46816;DHT22;32787;53.316;8.670;2023-06-22T14:54:53;25.60;61.80
46816;DHT22;32787;53.316;8.670;2023-06-22T14:57:19;25.50;61.20
46816;DHT22;32787;53.316;8.670;2023-06-22T14:59:46;25.40;60.00
46816;DHT22;32787;53.316;8.670;2023-06-22T15:02:14;25.30;61.20
46816;DHT22;32787;53.316;8.670;2023-06-22T15:04:40;25.20;61.60
46816;DHT22;32787;53.316;8.670;2023-06-22T15:07:05;25.30;61.80
46816;DHT22;32787;53.316;8.670;2023-06-22T15:09:31;25.20;61.00
46816;DHT22;32787;53.316;8.670;2023-06-22T15:11:57;25.30;61.40
46816;DHT22;32787;53.316;8.670;2023-06-22T15:14:23;25.30;61.20
46816;DHT22;32787;53.316;8.670;2023-06-22T15:16:49;25.40;60.30
46816;DHT22;32787;53.316;8.670;2023-06-22T15:19:15;25.30;60.90
46816;DHT22;32787;53.316;8.670;2023-06-22T15:21:41;25.40;61.30
46816;DHT22;32787;53.316;8.670;2023-06-22T15:24:06;25.40;62.40
46816;DHT22;32787;53.316;8.670;2023-06-22T15:26:32;25.40;62.60
46816;DHT22;32787;53.316;8.670;2023-06-22T15:28:58;25.20;63.30
46816;DHT22;32787;53.316;8.670;2023-06-22T15:31:23;25.40;63.30
46816;DHT22;32787;53.316;8.670;2023-06-22T15:33:49;25.20;62.10